Thunder radar more information blitzortung!


Radar de pluja more information rain snow radar


Visita la nostra xarxa de llocs de meteo:

Template documentation
and downloads

And another site



No particular awareness of the weather is required.    There are no Weather-warnings

Pagina Historial Weather Underground text

Diari Resum Marc 16, 2016 Unitats:  Mètric    Imperial   Tant
« Previous Dia
SegĂźent Dia »
Diari Setmana Mensual Anual Personalitzada
  Maxima: Minima: Media:
Temperatura: 14.1 °C 4.9 °C 8.5 °C
Punt de rosada: 6.2 °C 1.2 °C 3.4 °C
Humitat: 81 % 55 % 71 %
Wind Speed: 16.7 km/h 0.0 km/h 7 km/h
RĂ fegues de vent: 16.7 km/h - -
Vent:- - East
Pression baro: 1020.9 hPa 1012.8 hPa -
Precipitacions: 7.1 mm    
Historical Graphs
 
 
Dades de taula per Marc 16, 2016
Temps Temperatura Punt de rosada Pression baro Vent Wind Speed RĂ fegues de vent Humitat Rainfall Rate (Hourly)
00:05 5.6 °C 1.7 °C 1013.8 hPa NE 3.2 km/h 4.8 km/h 76 % 0.0 mm
00:15 5.6 °C 1.7 °C 1013.8 hPa NNE 1.6 km/h 3.2 km/h 76 % 0.0 mm
00:25 5.6 °C 1.5 °C 1013.8 hPa NNE 3.2 km/h 4.8 km/h 75 % 0.0 mm
00:35 5.6 °C 1.5 °C 1013.8 hPa NE 1.6 km/h 4.8 km/h 75 % 0.0 mm
00:45 5.6 °C 1.5 °C 1013.8 hPa NE 1.6 km/h 3.2 km/h 75 % 0.0 mm
00:55 5.5 °C 1.4 °C 1013.8 hPa North 1.6 km/h 3.2 km/h 75 % 0.0 mm
01:05 5.3 °C 1.2 °C 1013.8 hPa West 1.6 km/h 1.6 km/h 75 % 0.0 mm
01:15 5.1 °C 1.2 °C 1013.8 hPa Calm   1.6 km/h 76 % 0.0 mm
01:25 5.1 °C 1.2 °C 1013.8 hPa WSW 1.6 km/h 1.6 km/h 76 % 0.0 mm
01:35 5.5 °C 1.6 °C 1013.8 hPa NNW 1.6 km/h 4.8 km/h 76 % 0.0 mm
01:45 5.8 °C 1.9 °C 1013.8 hPa NE 1.6 km/h 4.8 km/h 76 % 0.0 mm
01:55 6.1 °C 2.2 °C 1013.8 hPa NE 1.6 km/h 4.8 km/h 76 % 0.0 mm
02:05 6.2 °C 2.3 °C 1013.8 hPa NNE 1.6 km/h 3.2 km/h 76 % 0.0 mm
02:15 6.3 °C 2.2 °C 1013.8 hPa NE 4.8 km/h 4.8 km/h 75 % 0.0 mm
02:25 6.4 °C 2.3 °C 1013.8 hPa NE 3.2 km/h 3.2 km/h 75 % 0.0 mm
02:35 6.5 °C 2.4 °C 1012.8 hPa NE 3.2 km/h 4.8 km/h 75 % 0.0 mm
02:45 6.5 °C 2.4 °C 1013.8 hPa NNE 3.2 km/h 4.8 km/h 75 % 0.0 mm
02:55 6.6 °C 2.3 °C 1013.8 hPa NNE 4.8 km/h 8.0 km/h 74 % 0.0 mm
03:05 6.7 °C 2.4 °C 1013.8 hPa NE 3.2 km/h 6.4 km/h 74 % 0.0 mm
03:15 6.8 °C 2.3 °C 1013.8 hPa North 4.8 km/h 8.0 km/h 73 % 0.0 mm
03:25 6.9 °C 2.4 °C 1013.8 hPa NNE 3.2 km/h 6.4 km/h 73 % 0.0 mm
03:35 7.1 °C 2.6 °C 1013.8 hPa NE 3.2 km/h 4.8 km/h 73 % 0.0 mm
03:55 7.6 °C 2.9 °C 1013.8 hPa NNE 3.2 km/h 3.2 km/h 72 % 0.0 mm
04:05 7.8 °C 3.1 °C 1013.8 hPa NE 1.6 km/h 4.8 km/h 72 % 0.0 mm
04:15 8.0 °C 3.1 °C 1013.8 hPa NNE 4.8 km/h 8.0 km/h 71 % 0.0 mm
04:25 8.2 °C 3.3 °C 1013.8 hPa NNE 4.8 km/h 6.4 km/h 71 % 0.0 mm
04:35 8.4 °C 3.4 °C 1013.8 hPa NE 1.6 km/h 6.4 km/h 71 % 0.0 mm
10:44 9.0 °C 3.6 °C 1013.8 hPa NE 3.7 km/h 3.7 km/h 69 % 0.0 mm
10:49 9.1 °C 3.7 °C 1013.8 hPa ENE 5.6 km/h 5.6 km/h 69 % 0.0 mm
10:54 9.2 °C 3.6 °C 1013.8 hPa ENE 7.4 km/h 7.4 km/h 68 % 0.0 mm
10:59 9.3 °C 3.7 °C 1013.8 hPa ENE 3.7 km/h 3.7 km/h 68 % 0.0 mm
11:04 9.4 °C 3.8 °C 1013.8 hPa NE 5.6 km/h 5.6 km/h 68 % 0.0 mm
11:09 9.6 °C 4.0 °C 1013.8 hPa ESE 5.0 km/h 5.0 km/h 68 % 0.0 mm
11:14 9.9 °C 4.1 °C 1013.8 hPa NNE 3.7 km/h   67 % 0.0 mm
11:19 10.1 °C 4.2 °C 1013.8 hPa ENE 7.4 km/h 7.4 km/h 67 % 0.0 mm
11:24 10.2 °C 4.3 °C 1013.8 hPa NE 7.4 km/h 7.4 km/h 67 % 0.0 mm
11:29 10.6 °C 4.5 °C 1013.8 hPa ENE 5.6 km/h 5.6 km/h 66 % 0.0 mm
11:34 10.6 °C 4.5 °C 1013.8 hPa NNE 3.7 km/h 3.7 km/h 66 % 0.0 mm
11:39 11.2 °C 5.1 °C 1013.8 hPa WNW 3.7 km/h 3.7 km/h 66 % 0.0 mm
11:44 11.2 °C 4.6 °C 1013.8 hPa North 7.4 km/h 7.4 km/h 64 % 0.0 mm
11:49 11.4 °C 4.8 °C 1013.8 hPa WSW 9.3 km/h 9.3 km/h 64 % 0.0 mm
11:54 11.5 °C 4.9 °C 1012.8 hPa NNE 3.7 km/h 3.7 km/h 64 % 0.0 mm
11:59 11.8 °C 5.0 °C 1012.8 hPa ENE 5.6 km/h 5.6 km/h 63 % 0.0 mm
12:04 12.1 °C 5.3 °C 1012.8 hPa NNW 3.7 km/h 3.7 km/h 63 % 0.0 mm
12:09 12.8 °C 5.9 °C 1013.8 hPa SSE 3.7 km/h 3.7 km/h 63 % 0.0 mm
12:14 13.1 °C 6.2 °C 1013.8 hPa South 3.7 km/h 3.7 km/h 63 % 0.0 mm
12:19 12.5 °C 4.9 °C 1013.8 hPa ESE 5.6 km/h 5.6 km/h 60 % 0.0 mm
12:24 12.7 °C 5.4 °C 1013.8 hPa WSW 5.6 km/h 5.6 km/h 61 % 0.0 mm
12:29 12.6 °C 5.1 °C 1013.8 hPa SW 3.7 km/h 3.7 km/h 60 % 0.0 mm
12:34 12.6 °C 5.3 °C 1013.8 hPa NW 5.6 km/h 5.6 km/h 61 % 0.0 mm
12:39 12.6 °C 5.1 °C 1013.8 hPa WNW 3.7 km/h   60 % 0.0 mm
12:44 12.7 °C 4.9 °C 1013.8 hPa NNW 3.7 km/h 3.7 km/h 59 % 0.0 mm
12:49 12.6 °C 5.1 °C 1013.8 hPa SSE 5.6 km/h 5.6 km/h 60 % 0.0 mm
12:54 12.8 °C 5.0 °C 1013.8 hPa NW 3.9 km/h 3.9 km/h 59 % 0.0 mm
12:59 13.0 °C 5.2 °C 1013.8 hPa ENE 3.7 km/h   59 % 0.0 mm
13:09 13.1 °C 5.0 °C 1012.8 hPa South 3.7 km/h 3.7 km/h 58 % 0.0 mm
13:14 13.2 °C 5.1 °C 1012.8 hPa South 5.6 km/h 5.6 km/h 58 % 0.0 mm
13:19 13.5 °C 5.4 °C 1012.8 hPa SE 3.7 km/h 3.7 km/h 58 % 0.0 mm
13:24 13.6 °C 5.5 °C 1013.8 hPa SW 7.4 km/h 7.4 km/h 58 % 0.0 mm
13:29 13.4 °C 5.1 °C 1013.8 hPa NNE 3.9 km/h 3.9 km/h 57 % 0.0 mm
13:34 13.3 °C 5.2 °C 1013.8 hPa SSW 3.7 km/h 3.7 km/h 58 % 0.0 mm
13:44 13.5 °C 4.9 °C 1013.8 hPa ENE 5.6 km/h 5.6 km/h 56 % 0.0 mm
13:49 13.5 °C 4.9 °C 1013.8 hPa ENE 2.3 km/h 2.3 km/h 56 % 0.0 mm
13:54 13.5 °C 5.2 °C 1013.8 hPa ENE 3.7 km/h 3.7 km/h 57 % 0.0 mm
13:59 13.4 °C 4.8 °C 1013.8 hPa North 3.7 km/h 3.7 km/h 56 % 0.0 mm
14:04 13.8 °C 5.4 °C 1013.8 hPa SE 3.5 km/h   57 % 0.0 mm
14:09 13.9 °C 5.3 °C 1012.8 hPa ENE 3.7 km/h 3.7 km/h 56 % 0.0 mm
14:14 14.1 °C 5.7 °C 1012.8 hPa NNE 3.7 km/h   57 % 0.0 mm
14:19 14.1 °C 5.4 °C 1012.8 hPa ENE 5.6 km/h 5.6 km/h 56 % 0.0 mm
14:24 13.9 °C 5.0 °C 1013.8 hPa NE 11.1 km/h 11.1 km/h 55 % 0.0 mm
14:29 14.0 °C 5.1 °C 1013.8 hPa ENE 8.7 km/h 8.7 km/h 55 % 0.0 mm
14:34 13.6 °C 5.0 °C 1013.8 hPa NNE 9.3 km/h 9.3 km/h 56 % 0.0 mm
14:39 13.3 °C 4.4 °C 1013.8 hPa SE 14.8 km/h 14.8 km/h 55 % 0.0 mm
14:44 13.1 °C 4.3 °C 1013.8 hPa East 13.0 km/h 13.0 km/h 55 % 0.0 mm
14:49 12.9 °C 4.1 °C 1013.8 hPa ESE 14.8 km/h 14.8 km/h 55 % 0.0 mm
14:54 12.9 °C 4.1 °C 1013.8 hPa SE 13.0 km/h 13.0 km/h 55 % 0.0 mm
14:59 13.0 °C 4.4 °C 1013.8 hPa ENE 11.1 km/h 11.1 km/h 56 % 0.0 mm
15:04 12.8 °C 4.2 °C 1013.8 hPa ESE 11.1 km/h 11.1 km/h 56 % 0.0 mm
15:09 12.8 °C 4.2 °C 1013.8 hPa East 13.0 km/h 13.0 km/h 56 % 0.0 mm
15:14 12.7 °C 4.4 °C 1013.8 hPa NE 9.3 km/h 9.3 km/h 57 % 0.0 mm
15:19 12.6 °C 4.3 °C 1013.8 hPa South 9.3 km/h 9.3 km/h 57 % 0.0 mm
15:24 12.5 °C 4.2 °C 1013.8 hPa NNE 9.3 km/h 9.3 km/h 57 % 0.0 mm
15:29 12.4 °C 4.1 °C 1013.8 hPa East 16.7 km/h 16.7 km/h 57 % 0.0 mm
15:34 12.4 °C 4.1 °C 1013.8 hPa ENE 7.4 km/h 7.4 km/h 57 % 0.0 mm
15:39 12.5 °C 4.2 °C 1013.8 hPa ENE 9.3 km/h 9.3 km/h 57 % 0.0 mm
15:44 12.4 °C 4.1 °C 1013.8 hPa ENE 14.8 km/h 14.8 km/h 57 % 0.0 mm
15:49 12.4 °C 4.1 °C 1013.8 hPa ENE 13.0 km/h 13.0 km/h 57 % 0.0 mm
15:54 12.2 °C 4.2 °C 1014.8 hPa East 16.7 km/h 16.7 km/h 58 % 0.0 mm
15:59 12.2 °C 4.2 °C 1014.8 hPa ESE 13.0 km/h 13.0 km/h 58 % 0.0 mm
16:04 12.2 °C 4.4 °C 1014.8 hPa ENE 13.0 km/h 13.0 km/h 59 % 0.0 mm
16:09 12.2 °C 4.4 °C 1013.8 hPa ENE 16.7 km/h 16.7 km/h 59 % 0.0 mm
16:14 12.2 °C 4.4 °C 1013.8 hPa ESE 13.0 km/h 13.0 km/h 59 % 0.0 mm
16:19 12.0 °C 4.2 °C 1013.8 hPa ESE 9.3 km/h 9.3 km/h 59 % 0.0 mm
16:24 12.0 °C 4.4 °C 1013.8 hPa ESE 12.6 km/h 12.6 km/h 60 % 0.0 mm
16:29 11.8 °C 4.5 °C 1013.8 hPa ESE 10.0 km/h 10.0 km/h 61 % 0.0 mm
16:34 11.7 °C 4.4 °C 1013.8 hPa ENE 11.1 km/h 11.1 km/h 61 % 0.0 mm
16:39 11.6 °C 4.3 °C 1014.8 hPa East 9.3 km/h 9.3 km/h 61 % 0.0 mm
16:44 11.6 °C 4.6 °C 1014.8 hPa ESE 16.4 km/h 16.4 km/h 62 % 0.0 mm
16:49 11.5 °C 4.4 °C 1014.8 hPa ENE 14.8 km/h 14.8 km/h 62 % 0.0 mm
16:54 11.5 °C 4.4 °C 1014.8 hPa ENE 12.2 km/h 12.2 km/h 62 % 0.0 mm
16:59 11.4 °C 4.4 °C 1014.8 hPa ENE 10.3 km/h 10.3 km/h 62 % 0.0 mm
17:04 11.3 °C 4.5 °C 1014.8 hPa ESE 13.0 km/h 13.0 km/h 63 % 0.0 mm
17:14 11.0 °C 4.4 °C 1014.8 hPa ESE 9.7 km/h 9.7 km/h 64 % 0.0 mm
17:19 10.9 °C 4.3 °C 1014.8 hPa SE 7.4 km/h 7.4 km/h 64 % 0.0 mm
17:24 10.7 °C 4.4 °C 1014.8 hPa SW 7.6 km/h 7.6 km/h 65 % 0.0 mm
17:29 10.6 °C 4.5 °C 1014.8 hPa ESE 9.3 km/h 9.3 km/h 66 % 0.0 mm
17:34 10.4 °C 4.6 °C 1014.8 hPa SSE 9.3 km/h 9.3 km/h 67 % 0.0 mm
17:39 10.2 °C 4.6 °C 1014.8 hPa NE 9.3 km/h 9.3 km/h 68 % 0.0 mm
17:44 10.0 °C 4.3 °C 1014.8 hPa East 9.3 km/h 9.3 km/h 68 % 0.0 mm
17:49 9.8 °C 4.4 °C 1014.8 hPa ENE 7.4 km/h 7.4 km/h 69 % 0.0 mm
17:54 9.7 °C 4.3 °C 1015.8 hPa ESE 11.1 km/h 11.1 km/h 69 % 0.0 mm
17:55 5.3 °C 1.9 °C 1019.9 hPa NE 4.8 km/h 6.4 km/h 79 % 0.0 mm
17:59 9.6 °C 4.4 °C 1015.8 hPa ESE 3.7 km/h 4.7 km/h 70 % 0.0 mm
18:04 9.5 °C 4.3 °C 1015.8 hPa NE 7.4 km/h 7.4 km/h 70 % 0.0 mm
18:05 5.2 °C 1.8 °C 1019.9 hPa NE 4.8 km/h 8.0 km/h 79 % 0.0 mm
18:09 9.4 °C 4.2 °C 1015.8 hPa NE 9.3 km/h 9.3 km/h 70 % 0.0 mm
18:14 9.2 °C 4.2 °C 1015.8 hPa NE 7.4 km/h 7.4 km/h 71 % 2.0 mm
18:15 5.2 °C 1.8 °C 1018.8 hPa NE 3.2 km/h 6.4 km/h 79 % 0.0 mm
18:19 9.1 °C 4.3 °C 1015.8 hPa ESE 5.6 km/h 5.6 km/h 72 % 2.0 mm
18:24 9.0 °C 4.4 °C 1015.8 hPa East 7.4 km/h 7.4 km/h 73 % 2.0 mm
18:25 5.1 °C 1.9 °C 1018.8 hPa ENE 3.2 km/h 8.0 km/h 80 % 0.0 mm
18:29 8.9 °C 4.5 °C 1015.8 hPa SE 6.9 km/h 6.9 km/h 74 % 2.0 mm
18:34 8.9 °C 4.5 °C 1015.8 hPa East 5.6 km/h 5.6 km/h 74 % 2.0 mm
18:35 5.2 °C 2.1 °C 1019.9 hPa East 4.8 km/h 6.4 km/h 80 % 0.0 mm
18:39 8.8 °C 4.6 °C 1015.8 hPa ENE 5.6 km/h 5.6 km/h 75 % 2.0 mm
18:44 8.7 °C 4.5 °C 1015.8 hPa NE 5.6 km/h 5.6 km/h 75 % 2.0 mm
18:45 5.2 °C 2.1 °C 1019.9 hPa ENE 3.2 km/h 4.8 km/h 80 % 0.0 mm
18:54 8.6 °C 4.6 °C 1015.8 hPa NE 9.0 km/h 9.0 km/h 76 % 2.0 mm
18:55 5.2 °C 2.1 °C 1019.9 hPa NE 4.8 km/h 4.8 km/h 80 % 0.0 mm
18:59 8.5 °C 4.9 °C 1015.8 hPa ENE 9.3 km/h 9.3 km/h 78 % 2.0 mm
19:04 8.4 °C 4.8 °C 1015.8 hPa East 11.1 km/h 11.1 km/h 78 % 2.0 mm
19:05 5.2 °C 2.1 °C 1019.9 hPa NE 4.8 km/h 6.4 km/h 80 % 0.0 mm
19:09 8.2 °C 4.8 °C 1015.8 hPa ENE 11.4 km/h 11.4 km/h 79 % 2.0 mm
19:14 8.1 °C 4.5 °C 1015.8 hPa NNE 5.6 km/h 7.6 km/h 78 % 0.0 mm
19:15 5.2 °C 2.1 °C 1019.9 hPa NE 3.2 km/h 4.8 km/h 80 % 0.0 mm
19:19 8.1 °C 4.5 °C 1015.8 hPa NNE 5.6 km/h 7.6 km/h 78 % 0.0 mm
19:24 7.9 °C 4.5 °C 1016.8 hPa NE 10.3 km/h 10.3 km/h 79 % 0.0 mm
19:25 5.2 °C 2.2 °C 1019.9 hPa Calm   1.6 km/h 81 % 0.0 mm
19:29 7.8 °C 4.4 °C 1016.8 hPa ENE 11.1 km/h 11.1 km/h 79 % 0.0 mm
19:34 7.7 °C 4.3 °C 1016.8 hPa East 10.0 km/h 10.0 km/h 79 % 0.0 mm
19:35 5.2 °C 2.2 °C 1019.9 hPa NNE 3.2 km/h 4.8 km/h 81 % 0.0 mm
19:39 7.6 °C 4.2 °C 1016.8 hPa ENE 14.8 km/h 14.8 km/h 79 % 0.0 mm
19:44 7.5 °C 4.1 °C 1016.8 hPa ENE 9.3 km/h 9.3 km/h 79 % 0.0 mm
19:45 5.1 °C 2.1 °C 1019.9 hPa NNE 8.0 km/h 8.0 km/h 81 % 0.0 mm
19:49 7.5 °C 4.1 °C 1016.8 hPa NE 12.6 km/h 12.6 km/h 79 % 0.0 mm
19:54 7.3 °C 3.9 °C 1016.8 hPa East 9.3 km/h 9.3 km/h 79 % 0.0 mm
19:55 5.1 °C 1.9 °C 1019.9 hPa NE 8.0 km/h 8.0 km/h 80 % 0.0 mm
19:59 7.2 °C 3.8 °C 1016.8 hPa East 9.3 km/h 9.3 km/h 79 % 0.0 mm
20:04 7.1 °C 3.7 °C 1016.8 hPa East 9.3 km/h 9.3 km/h 79 % 0.0 mm
20:05 5.0 °C 1.8 °C 1019.9 hPa NNE 8.0 km/h 8.0 km/h 80 % 0.0 mm
20:09 7.0 °C 3.6 °C 1017.8 hPa ENE 5.8 km/h 7.6 km/h 79 % 0.0 mm
20:14 6.9 °C 3.5 °C 1017.8 hPa ENE 5.8 km/h 7.6 km/h 79 % 0.0 mm
20:15 5.0 °C 1.8 °C 1019.9 hPa NNE 4.8 km/h 9.7 km/h 80 % 0.0 mm
20:19 6.8 °C 3.6 °C 1017.8 hPa ESE 9.5 km/h 9.5 km/h 80 % 0.0 mm
20:24 6.7 °C 3.5 °C 1017.8 hPa ENE 13.0 km/h 13.0 km/h 80 % 0.0 mm
20:25 5.0 °C 1.8 °C 1019.9 hPa NNE 8.0 km/h 8.0 km/h 80 % 0.0 mm
20:29 6.7 °C 3.5 °C 1017.8 hPa ESE 9.3 km/h 9.3 km/h 80 % 0.0 mm
20:34 6.6 °C 3.4 °C 1017.8 hPa ESE 9.3 km/h 9.3 km/h 80 % 0.0 mm
20:35 5.0 °C 1.8 °C 1019.9 hPa NNE 4.8 km/h 4.8 km/h 80 % 0.0 mm
20:39 6.6 °C 3.4 °C 1018.8 hPa ESE 9.3 km/h 9.3 km/h 80 % 0.0 mm
20:44 6.6 °C 3.4 °C 1018.8 hPa ENE 9.3 km/h 9.3 km/h 80 % 0.0 mm
20:45 4.9 °C 1.7 °C 1019.9 hPa NNE 4.8 km/h 6.4 km/h 80 % 0.0 mm
20:49 6.6 °C 3.4 °C 1018.8 hPa East 7.9 km/h 7.9 km/h 80 % 0.0 mm
20:54 6.5 °C 3.3 °C 1017.8 hPa East 7.9 km/h 7.9 km/h 80 % 0.0 mm
20:55 4.9 °C 1.7 °C 1019.9 hPa NE 4.8 km/h 9.7 km/h 80 % 0.0 mm
20:59 6.5 °C 3.3 °C 1017.8 hPa East 7.9 km/h 7.9 km/h 80 % 0.0 mm
21:04 6.5 °C 3.3 °C 1017.8 hPa East 7.9 km/h 7.9 km/h 80 % 0.0 mm
21:05 4.9 °C 1.7 °C 1019.9 hPa NE 4.8 km/h 8.0 km/h 80 % 0.0 mm
21:09 6.5 °C 3.3 °C 1018.8 hPa East 7.4 km/h 7.4 km/h 80 % 0.0 mm
21:14 6.5 °C 3.3 °C 1018.8 hPa East 5.6 km/h 7.2 km/h 80 % 0.0 mm
21:15 4.9 °C 1.7 °C 1019.9 hPa NNE 9.7 km/h 9.7 km/h 80 % 0.0 mm
21:19 6.4 °C 3.2 °C 1018.8 hPa East 5.6 km/h 7.2 km/h 80 % 0.0 mm
21:24 6.3 °C 3.1 °C 1018.8 hPa ESE 9.3 km/h 9.3 km/h 80 % 0.0 mm
21:25 4.9 °C 1.7 °C 1019.9 hPa NNE 4.8 km/h 6.4 km/h 80 % 0.0 mm
21:29 6.3 °C 3.1 °C 1018.8 hPa ESE 3.7 km/h 4.7 km/h 80 % 0.0 mm
21:34 6.3 °C 3.1 °C 1018.8 hPa ENE 7.4 km/h 7.4 km/h 80 % 0.0 mm
21:35 4.9 °C 1.6 °C 1019.9 hPa NNE 3.2 km/h 4.8 km/h 79 % 0.0 mm
21:39 6.3 °C 3.1 °C 1018.8 hPa ENE 9.5 km/h 9.5 km/h 80 % 0.0 mm
21:44 6.2 °C 3.0 °C 1018.8 hPa East 5.6 km/h 5.6 km/h 80 % 0.0 mm
21:45 5.0 °C 1.7 °C 1018.8 hPa NE 3.2 km/h 9.7 km/h 79 % 0.0 mm
21:49 6.2 °C 3.2 °C 1018.8 hPa NE 5.8 km/h 5.8 km/h 81 % 0.0 mm
21:55 4.9 °C 1.6 °C 1018.8 hPa NE 1.6 km/h 6.4 km/h 79 % 0.0 mm
21:59 6.1 °C 3.1 °C 1018.8 hPa ESE 13.7 km/h 13.7 km/h 81 % 0.0 mm
22:04 6.0 °C 2.8 °C 1018.8 hPa ENE 13.0 km/h 13.0 km/h 80 % 0.0 mm
22:05 5.0 °C 1.7 °C 1020.9 hPa NE 3.2 km/h 4.8 km/h 79 % 0.0 mm
22:09 6.0 °C 2.8 °C 1018.8 hPa ENE 9.3 km/h 9.3 km/h 80 % 0.0 mm
22:14 6.0 °C 2.8 °C 1018.8 hPa East 6.9 km/h 6.9 km/h 80 % 0.0 mm
22:15 5.0 °C 1.7 °C 1019.9 hPa NE 3.2 km/h 6.4 km/h 79 % 0.0 mm
22:19 6.0 °C 2.8 °C 1018.8 hPa NE 5.8 km/h 5.8 km/h 80 % 0.0 mm
22:24 5.9 °C 2.7 °C 1018.8 hPa ENE 13.0 km/h 13.0 km/h 80 % 0.0 mm
22:25 5.1 °C 1.8 °C 1019.9 hPa NE 3.2 km/h 4.8 km/h 79 % 0.0 mm
22:29 5.8 °C 2.6 °C 1018.8 hPa ENE 9.3 km/h 9.3 km/h 80 % 0.0 mm
22:34 5.8 °C 2.6 °C 1018.8 hPa East 9.3 km/h 9.3 km/h 80 % 0.0 mm
22:35 5.1 °C 1.8 °C 1019.9 hPa NE 4.8 km/h 4.8 km/h 79 % 0.0 mm
22:39 5.8 °C 2.6 °C 1018.8 hPa ENE 7.4 km/h 7.4 km/h 80 % 0.0 mm
22:44 5.7 °C 2.5 °C 1018.8 hPa NE 9.3 km/h 9.3 km/h 80 % 0.0 mm
22:45 5.1 °C 1.6 °C 1019.9 hPa NNE 3.2 km/h 6.4 km/h 78 % 0.0 mm
22:49 5.7 °C 2.5 °C 1018.8 hPa ESE 9.3 km/h 9.3 km/h 80 % 0.0 mm
22:54 5.7 °C 2.5 °C 1019.9 hPa ENE 9.7 km/h 9.7 km/h 80 % 0.0 mm
22:55 5.1 °C 1.6 °C 1019.9 hPa NNE 3.2 km/h 6.4 km/h 78 % 0.0 mm
22:59 5.7 °C 2.5 °C 1019.9 hPa ENE 5.6 km/h 6.9 km/h 80 % 0.0 mm
23:04 5.7 °C 2.5 °C 1019.9 hPa NE 5.6 km/h 5.6 km/h 80 % 0.0 mm
23:05 5.2 °C 1.7 °C 1019.9 hPa NE 3.2 km/h 4.8 km/h 78 % 0.0 mm
23:09 5.7 °C 2.3 °C 1019.9 hPa NE 9.7 km/h 9.7 km/h 79 % 0.0 mm
23:14 5.6 °C 2.2 °C 1019.9 hPa ENE 6.1 km/h 6.4 km/h 79 % 5.1 mm
23:15 5.2 °C 1.7 °C 1019.9 hPa NE 4.8 km/h 4.8 km/h 78 % 0.0 mm
23:19 5.6 °C 2.2 °C 1019.9 hPa East 8.7 km/h 8.7 km/h 79 % 5.1 mm
23:24 5.6 °C 2.2 °C 1019.9 hPa ENE 9.7 km/h 10.3 km/h 79 % 5.1 mm
23:25 5.2 °C 1.5 °C 1019.9 hPa NE 4.8 km/h 9.7 km/h 77 % 0.0 mm
23:29 5.5 °C 2.2 °C 1019.9 hPa ESE 13.7 km/h 13.7 km/h 79 % 5.1 mm
23:34 5.5 °C 2.2 °C 1019.9 hPa East 13.0 km/h 13.0 km/h 79 % 5.1 mm
23:35 5.2 °C 1.5 °C 1018.8 hPa NE 4.8 km/h 6.4 km/h 77 % 0.0 mm
23:39 5.4 °C 2.1 °C 1019.9 hPa ESE 9.3 km/h 9.3 km/h 79 % 5.1 mm
23:44 5.3 °C 1.9 °C 1019.9 hPa ENE 11.1 km/h 11.1 km/h 79 % 5.1 mm
23:45 5.2 °C 1.5 °C 1019.9 hPa NE 4.8 km/h 6.4 km/h 77 % 0.0 mm
23:49 5.3 °C 1.9 °C 1019.9 hPa ENE 9.5 km/h 9.5 km/h 79 % 5.1 mm
23:55 5.1 °C 1.4 °C 1019.9 hPa NE 8.0 km/h 12.9 km/h 77 % 0.0 mm
Meteo Sesrovires
Elogis d' Weather Underground - 3.75 mb

Guio original per  Jim McMurry - jmcmurry@mwt.net Adaptat per a la plantilla per  Wim van der Kuil - Leuven-Template.eu

Trobareu la nostra informacio del temps tambe a:

Weather Underground

AWEKAS